PWSweather.com
Personal Weather Stations
Station Observations
WD4JKH
Forsyth, GA 31029

Forsyth, GA 31029

Lat: 33.033225, Lon: -83.927995

Elevation: 709

Station Type: Davis Vantage VUE

High Low Average
Temperature 83.1°F28.4°C 69.4°F20.8°C 75.5°F24.2°C
Dew Point 71.2°F21.8°C 61.0°F16.1°C 66.6°F19.2°C
Winds 8.4 mph 13.5 kmh Calm Calm 3.0 mph ENE4.8 kmh ENE
Wind Gusts 15.0 mph24.1 kmh 1.0 mph1.6 kmh 7.0 mph11.3 kmh
Humidity 94% 49% 75%
Pressure 30.30 in1026.1 mb 30.18 in1022.0 mb -
Precipitation 0.00 in0.0 mm - -
Hour Temp Dew Point Humidity Winds Wind Gusts Pressure Precip Precip Rate Daily Precip Total
12:03 AM 73.2°F22.9°C 71.0°F21.7°C 93% 1.7 mph ENE2.7 kmh ENE 3.0 mph4.8 kmh 30.24 in1024.0 mb 0.00 in0.0 mm 0.00 in0.0 mm 0.00 in0.0 mm
12:08 AM 73.2°F22.9°C 71.0°F21.7°C 93% 1.0 mph ENE1.6 kmh ENE 3.0 mph4.8 kmh 30.24 in1024.0 mb 0.00 in0.0 mm 0.00 in0.0 mm 0.00 in0.0 mm
12:13 AM 73.1°F22.8°C 70.9°F21.6°C 93% 2.4 mph ENE3.9 kmh ENE 4.0 mph6.4 kmh 30.24 in1024.0 mb 0.00 in0.0 mm 0.00 in0.0 mm 0.00 in0.0 mm
12:18 AM 73.1°F22.8°C 71.2°F21.8°C 94% 1.0 mph E1.6 kmh E 4.0 mph6.4 kmh 30.24 in1024.0 mb 0.00 in0.0 mm 0.00 in0.0 mm 0.00 in0.0 mm
12:24 AM 73.0°F22.8°C 71.1°F21.7°C 94% 1.0 mph E1.6 kmh E 4.0 mph6.4 kmh 30.24 in1024.0 mb 0.00 in0.0 mm 0.00 in0.0 mm 0.00 in0.0 mm
12:29 AM 72.9°F22.7°C 71.0°F21.7°C 94% Calm Calm 4.0 mph6.4 kmh 30.23 in1023.7 mb 0.00 in0.0 mm 0.00 in0.0 mm 0.00 in0.0 mm
12:34 AM 72.8°F22.7°C 70.9°F21.6°C 94% 1.0 mph E1.6 kmh E 1.0 mph1.6 kmh 30.23 in1023.7 mb 0.00 in0.0 mm 0.00 in0.0 mm 0.00 in0.0 mm
12:39 AM 72.8°F22.7°C 71.0°F21.7°C 94% Calm Calm 1.0 mph1.6 kmh 30.23 in1023.7 mb 0.00 in0.0 mm 0.00 in0.0 mm 0.00 in0.0 mm
12:44 AM 72.7°F22.6°C 70.9°F21.6°C 94% Calm Calm 1.0 mph1.6 kmh 30.23 in1023.7 mb 0.00 in0.0 mm 0.00 in0.0 mm 0.00 in0.0 mm
12:49 AM 72.7°F22.6°C 70.9°F21.6°C 94% 1.2 mph E1.9 kmh E 2.0 mph3.2 kmh 30.23 in1023.7 mb 0.00 in0.0 mm 0.00 in0.0 mm 0.00 in0.0 mm
12:54 AM 72.8°F22.7°C 70.9°F21.6°C 94% 1.0 mph E1.6 kmh E 2.0 mph3.2 kmh 30.24 in1024.0 mb 0.00 in0.0 mm 0.00 in0.0 mm 0.00 in0.0 mm
12:59 AM 72.8°F22.7°C 70.9°F21.6°C 94% 2.0 mph E3.2 kmh E 3.0 mph4.8 kmh 30.24 in1024.0 mb 0.00 in0.0 mm 0.00 in0.0 mm 0.00 in0.0 mm
01:04 AM 72.9°F22.7°C 71.0°F21.7°C 94% 2.3 mph E3.7 kmh E 4.0 mph6.4 kmh 30.24 in1024.0 mb 0.00 in0.0 mm 0.00 in0.0 mm 0.00 in0.0 mm
01:09 AM 72.9°F22.7°C 71.0°F21.7°C 94% 2.2 mph E3.5 kmh E 4.0 mph6.4 kmh 30.24 in1024.0 mb 0.00 in0.0 mm 0.00 in0.0 mm 0.00 in0.0 mm
01:14 AM 72.9°F22.7°C 71.1°F21.7°C 94% 1.7 mph E2.7 kmh E 4.0 mph6.4 kmh 30.24 in1024.0 mb 0.00 in0.0 mm 0.00 in0.0 mm 0.00 in0.0 mm
01:19 AM 72.8°F22.7°C 71.0°F21.7°C 94% 1.0 mph ENE1.6 kmh ENE 4.0 mph6.4 kmh 30.24 in1024.0 mb 0.00 in0.0 mm 0.00 in0.0 mm 0.00 in0.0 mm
01:24 AM 72.7°F22.6°C 70.9°F21.6°C 94% 4.1 mph ENE6.6 kmh ENE 6.0 mph9.7 kmh 30.24 in1024.0 mb 0.00 in0.0 mm 0.00 in0.0 mm 0.00 in0.0 mm
01:29 AM 72.7°F22.6°C 70.9°F21.6°C 94% 2.1 mph E3.4 kmh E 6.0 mph9.7 kmh 30.24 in1024.0 mb 0.00 in0.0 mm 0.00 in0.0 mm 0.00 in0.0 mm
01:34 AM 72.7°F22.6°C 70.9°F21.6°C 94% 1.8 mph E2.9 kmh E 6.0 mph9.7 kmh 30.24 in1024.0 mb 0.00 in0.0 mm 0.00 in0.0 mm 0.00 in0.0 mm
01:39 AM 72.6°F22.6°C 70.8°F21.6°C 94% 2.6 mph E4.2 kmh E 6.0 mph9.7 kmh 30.24 in1024.0 mb 0.00 in0.0 mm 0.00 in0.0 mm 0.00 in0.0 mm
01:44 AM 72.6°F22.6°C 70.8°F21.6°C 94% 1.3 mph NE2.1 kmh NE 5.0 mph8.0 kmh 30.24 in1024.0 mb 0.00 in0.0 mm 0.00 in0.0 mm 0.00 in0.0 mm
01:49 AM 72.6°F22.6°C 70.8°F21.6°C 94% 1.0 mph E1.6 kmh E 5.0 mph8.0 kmh 30.24 in1024.0 mb 0.00 in0.0 mm 0.00 in0.0 mm 0.00 in0.0 mm
01:54 AM 72.5°F22.5°C 70.6°F21.4°C 94% 1.6 mph E2.6 kmh E 5.0 mph8.0 kmh 30.23 in1023.7 mb 0.00 in0.0 mm 0.00 in0.0 mm 0.00 in0.0 mm
01:59 AM 72.5°F22.5°C 70.6°F21.4°C 94% 1.4 mph E2.3 kmh E 5.0 mph8.0 kmh 30.24 in1024.0 mb 0.00 in0.0 mm 0.00 in0.0 mm 0.00 in0.0 mm
02:04 AM 72.4°F22.4°C 70.5°F21.4°C 94% 1.6 mph E2.6 kmh E 4.0 mph6.4 kmh 30.23 in1023.7 mb 0.00 in0.0 mm 0.00 in0.0 mm 0.00 in0.0 mm
02:09 AM 72.4°F22.4°C 70.5°F21.4°C 94% 2.0 mph E3.2 kmh E 4.0 mph6.4 kmh 30.23 in1023.7 mb 0.00 in0.0 mm 0.00 in0.0 mm 0.00 in0.0 mm
02:14 AM 72.4°F22.4°C 70.5°F21.4°C 94% 1.0 mph E1.6 kmh E 4.0 mph6.4 kmh 30.23 in1023.7 mb 0.00 in0.0 mm 0.00 in0.0 mm 0.00 in0.0 mm
02:19 AM 72.3°F22.4°C 70.1°F21.2°C 93% 1.9 mph ENE3.1 kmh ENE 4.0 mph6.4 kmh 30.23 in1023.7 mb 0.00 in0.0 mm 0.00 in0.0 mm 0.00 in0.0 mm
02:24 AM 72.4°F22.4°C 70.2°F21.2°C 93% 1.2 mph NE1.9 kmh NE 5.0 mph8.0 kmh 30.23 in1023.7 mb 0.00 in0.0 mm 0.00 in0.0 mm 0.00 in0.0 mm
02:29 AM 72.3°F22.4°C 70.1°F21.2°C 93% 2.0 mph ENE3.2 kmh ENE 5.0 mph8.0 kmh 30.23 in1023.7 mb 0.00 in0.0 mm 0.00 in0.0 mm 0.00 in0.0 mm
02:34 AM 72.3°F22.4°C 70.1°F21.2°C 93% 1.5 mph E2.4 kmh E 5.0 mph8.0 kmh 30.23 in1023.7 mb 0.00 in0.0 mm 0.00 in0.0 mm 0.00 in0.0 mm
02:39 AM 72.3°F22.4°C 70.1°F21.2°C 93% 1.2 mph E1.9 kmh E 5.0 mph8.0 kmh 30.23 in1023.7 mb 0.00 in0.0 mm 0.00 in0.0 mm 0.00 in0.0 mm
02:44 AM 72.3°F22.4°C 70.1°F21.2°C 93% 1.0 mph E1.6 kmh E 3.0 mph4.8 kmh 30.23 in1023.7 mb 0.00 in0.0 mm 0.00 in0.0 mm 0.00 in0.0 mm
02:49 AM 72.3°F22.4°C 70.1°F21.2°C 93% 1.0 mph E1.6 kmh E 3.0 mph4.8 kmh 30.23 in1023.7 mb 0.00 in0.0 mm 0.00 in0.0 mm 0.00 in0.0 mm
02:54 AM 72.3°F22.4°C 69.8°F21.0°C 92% 1.0 mph E1.6 kmh E 2.0 mph3.2 kmh 30.23 in1023.7 mb 0.00 in0.0 mm 0.00 in0.0 mm 0.00 in0.0 mm
02:59 AM 72.2°F22.3°C 70.0°F21.1°C 93% 1.2 mph E1.9 kmh E 2.0 mph3.2 kmh 30.23 in1023.7 mb 0.00 in0.0 mm 0.00 in0.0 mm 0.00 in0.0 mm
03:04 AM 72.2°F22.3°C 70.0°F21.1°C 93% 1.4 mph E2.3 kmh E 2.0 mph3.2 kmh 30.23 in1023.7 mb 0.00 in0.0 mm 0.00 in0.0 mm 0.00 in0.0 mm
03:09 AM 72.2°F22.3°C 70.0°F21.1°C 93% Calm Calm 2.0 mph3.2 kmh 30.23 in1023.7 mb 0.00 in0.0 mm 0.00 in0.0 mm 0.00 in0.0 mm
03:14 AM 72.2°F22.3°C 70.0°F21.1°C 93% 2.7 mph E4.3 kmh E 4.0 mph6.4 kmh 30.23 in1023.7 mb 0.00 in0.0 mm 0.00 in0.0 mm 0.00 in0.0 mm
03:19 AM 72.2°F22.3°C 70.0°F21.1°C 93% 1.8 mph E2.9 kmh E 4.0 mph6.4 kmh 30.23 in1023.7 mb 0.00 in0.0 mm 0.00 in0.0 mm 0.00 in0.0 mm
03:24 AM 72.1°F22.3°C 69.9°F21.1°C 93% 1.0 mph E1.6 kmh E 4.0 mph6.4 kmh 30.23 in1023.7 mb 0.00 in0.0 mm 0.00 in0.0 mm 0.00 in0.0 mm
03:29 AM 72.0°F22.2°C 69.8°F21.0°C 93% 1.9 mph E3.1 kmh E 4.0 mph6.4 kmh 30.23 in1023.7 mb 0.00 in0.0 mm 0.00 in0.0 mm 0.00 in0.0 mm
03:34 AM 72.0°F22.2°C 69.8°F21.0°C 93% 1.8 mph E2.9 kmh E 4.0 mph6.4 kmh 30.22 in1023.4 mb 0.00 in0.0 mm 0.00 in0.0 mm 0.00 in0.0 mm
03:39 AM 71.9°F22.2°C 69.7°F20.9°C 93% 2.8 mph ENE4.5 kmh ENE 4.0 mph6.4 kmh 30.22 in1023.4 mb 0.00 in0.0 mm 0.00 in0.0 mm 0.00 in0.0 mm
03:44 AM 71.8°F22.1°C 69.6°F20.9°C 93% 1.7 mph E2.7 kmh E 5.0 mph8.0 kmh 30.23 in1023.7 mb 0.00 in0.0 mm 0.00 in0.0 mm 0.00 in0.0 mm
03:49 AM 71.6°F22.0°C 69.4°F20.8°C 93% 2.3 mph E3.7 kmh E 5.0 mph8.0 kmh 30.22 in1023.4 mb 0.00 in0.0 mm 0.00 in0.0 mm 0.00 in0.0 mm
03:54 AM 71.6°F22.0°C 69.4°F20.8°C 93% 1.7 mph E2.7 kmh E 5.0 mph8.0 kmh 30.23 in1023.7 mb 0.00 in0.0 mm 0.00 in0.0 mm 0.00 in0.0 mm
03:59 AM 71.5°F21.9°C 69.3°F20.7°C 93% 1.5 mph E2.4 kmh E 5.0 mph8.0 kmh 30.22 in1023.4 mb 0.00 in0.0 mm 0.00 in0.0 mm 0.00 in0.0 mm
04:04 AM 71.5°F21.9°C 69.3°F20.7°C 93% 2.6 mph ENE4.2 kmh ENE 5.0 mph8.0 kmh 30.23 in1023.7 mb 0.00 in0.0 mm 0.00 in0.0 mm 0.00 in0.0 mm
04:09 AM 71.5°F21.9°C 69.3°F20.7°C 93% 2.0 mph E3.2 kmh E 5.0 mph8.0 kmh 30.23 in1023.7 mb 0.00 in0.0 mm 0.00 in0.0 mm 0.00 in0.0 mm
04:14 AM 71.5°F21.9°C 69.3°F20.7°C 93% 1.5 mph E2.4 kmh E 5.0 mph8.0 kmh 30.23 in1023.7 mb 0.00 in0.0 mm 0.00 in0.0 mm 0.00 in0.0 mm
04:19 AM 71.4°F21.9°C 69.2°F20.7°C 93% 1.9 mph E3.1 kmh E 5.0 mph8.0 kmh 30.23 in1023.7 mb 0.00 in0.0 mm 0.00 in0.0 mm 0.00 in0.0 mm
04:24 AM 71.4°F21.9°C 69.2°F20.7°C 93% 3.0 mph ENE4.8 kmh ENE 5.0 mph8.0 kmh 30.23 in1023.7 mb 0.00 in0.0 mm 0.00 in0.0 mm 0.00 in0.0 mm
04:29 AM 71.4°F21.9°C 69.2°F20.7°C 93% 3.0 mph E4.8 kmh E 5.0 mph8.0 kmh 30.23 in1023.7 mb 0.00 in0.0 mm 0.00 in0.0 mm 0.00 in0.0 mm
04:34 AM 71.5°F21.9°C 69.1°F20.6°C 92% 2.6 mph E4.2 kmh E 6.0 mph9.7 kmh 30.23 in1023.7 mb 0.00 in0.0 mm 0.00 in0.0 mm 0.00 in0.0 mm
04:39 AM 71.5°F21.9°C 69.1°F20.6°C 92% 2.3 mph E3.7 kmh E 6.0 mph9.7 kmh 30.23 in1023.7 mb 0.00 in0.0 mm 0.00 in0.0 mm 0.00 in0.0 mm
04:44 AM 71.4°F21.9°C 69.0°F20.6°C 92% 2.6 mph ENE4.2 kmh ENE 6.0 mph9.7 kmh 30.24 in1024.0 mb 0.00 in0.0 mm 0.00 in0.0 mm 0.00 in0.0 mm
04:49 AM 71.4°F21.9°C 69.0°F20.6°C 92% 2.2 mph E3.5 kmh E 6.0 mph9.7 kmh 30.24 in1024.0 mb 0.00 in0.0 mm 0.00 in0.0 mm 0.00 in0.0 mm
04:54 AM 71.4°F21.9°C 68.9°F20.5°C 92% 3.0 mph E4.8 kmh E 6.0 mph9.7 kmh 30.24 in1024.0 mb 0.00 in0.0 mm 0.00 in0.0 mm 0.00 in0.0 mm
04:59 AM 71.4°F21.9°C 68.9°F20.5°C 92% 2.8 mph E4.5 kmh E 6.0 mph9.7 kmh 30.24 in1024.0 mb 0.00 in0.0 mm 0.00 in0.0 mm 0.00 in0.0 mm
05:04 AM 71.4°F21.9°C 69.0°F20.6°C 92% 1.6 mph E2.6 kmh E 6.0 mph9.7 kmh 30.24 in1024.0 mb 0.00 in0.0 mm 0.00 in0.0 mm 0.00 in0.0 mm
05:09 AM 71.4°F21.9°C 68.9°F20.5°C 92% 3.2 mph E5.1 kmh E 7.0 mph11.3 kmh 30.24 in1024.0 mb 0.00 in0.0 mm 0.00 in0.0 mm 0.00 in0.0 mm
05:14 AM 71.3°F21.8°C 68.9°F20.5°C 92% 3.1 mph E5.0 kmh E 7.0 mph11.3 kmh 30.24 in1024.0 mb 0.00 in0.0 mm 0.00 in0.0 mm 0.00 in0.0 mm
05:19 AM 71.3°F21.8°C 68.5°F20.3°C 91% 1.9 mph E3.1 kmh E 7.0 mph11.3 kmh 30.24 in1024.0 mb 0.00 in0.0 mm 0.00 in0.0 mm 0.00 in0.0 mm
05:24 AM 71.3°F21.8°C 68.5°F20.3°C 91% 4.0 mph ENE6.4 kmh ENE 7.0 mph11.3 kmh 30.24 in1024.0 mb 0.00 in0.0 mm 0.00 in0.0 mm 0.00 in0.0 mm
05:29 AM 71.2°F21.8°C 68.4°F20.2°C 91% 2.8 mph ENE4.5 kmh ENE 7.0 mph11.3 kmh 30.24 in1024.0 mb 0.00 in0.0 mm 0.00 in0.0 mm 0.00 in0.0 mm
05:34 AM 71.1°F21.7°C 68.6°F20.3°C 92% 1.7 mph E2.7 kmh E 7.0 mph11.3 kmh 30.24 in1024.0 mb 0.00 in0.0 mm 0.00 in0.0 mm 0.00 in0.0 mm
05:39 AM 71.0°F21.7°C 68.5°F20.3°C 92% 1.8 mph ENE2.9 kmh ENE 7.0 mph11.3 kmh 30.24 in1024.0 mb 0.00 in0.0 mm 0.00 in0.0 mm 0.00 in0.0 mm
05:44 AM 70.9°F21.6°C 68.4°F20.2°C 92% 2.0 mph ENE3.2 kmh ENE 6.0 mph9.7 kmh 30.24 in1024.0 mb 0.00 in0.0 mm 0.00 in0.0 mm 0.00 in0.0 mm
05:49 AM 70.7°F21.5°C 68.5°F20.3°C 93% 3.2 mph E5.1 kmh E 6.0 mph9.7 kmh 30.24 in1024.0 mb 0.00 in0.0 mm 0.00 in0.0 mm 0.00 in0.0 mm
05:54 AM 70.5°F21.4°C 68.3°F20.2°C 93% 3.0 mph E4.8 kmh E 6.0 mph9.7 kmh 30.24 in1024.0 mb 0.00 in0.0 mm 0.00 in0.0 mm 0.00 in0.0 mm
05:59 AM 70.3°F21.3°C 68.2°F20.1°C 93% 2.7 mph ENE4.3 kmh ENE 7.0 mph11.3 kmh 30.24 in1024.0 mb 0.00 in0.0 mm 0.00 in0.0 mm 0.00 in0.0 mm
06:04 AM 70.3°F21.3°C 68.2°F20.1°C 93% 4.0 mph ENE6.4 kmh ENE 7.0 mph11.3 kmh 30.25 in1024.4 mb 0.00 in0.0 mm 0.00 in0.0 mm 0.00 in0.0 mm
06:09 AM 70.2°F21.2°C 68.1°F20.1°C 93% 2.1 mph ENE3.4 kmh ENE 7.0 mph11.3 kmh 30.25 in1024.4 mb 0.00 in0.0 mm 0.00 in0.0 mm 0.00 in0.0 mm
06:14 AM 70.1°F21.2°C 68.0°F20.0°C 93% 2.7 mph ENE4.3 kmh ENE 7.0 mph11.3 kmh 30.25 in1024.4 mb 0.00 in0.0 mm 0.00 in0.0 mm 0.00 in0.0 mm
06:19 AM 70.0°F21.1°C 67.9°F19.9°C 93% 2.2 mph ENE3.5 kmh ENE 7.0 mph11.3 kmh 30.25 in1024.4 mb 0.00 in0.0 mm 0.00 in0.0 mm 0.00 in0.0 mm
06:24 AM 70.0°F21.1°C 67.9°F19.9°C 93% 2.2 mph ENE3.5 kmh ENE 6.0 mph9.7 kmh 30.25 in1024.4 mb 0.00 in0.0 mm 0.00 in0.0 mm 0.00 in0.0 mm
06:29 AM 69.9°F21.1°C 67.8°F19.9°C 93% 2.6 mph ENE4.2 kmh ENE 6.0 mph9.7 kmh 30.26 in1024.7 mb 0.00 in0.0 mm 0.00 in0.0 mm 0.00 in0.0 mm
06:34 AM 69.9°F21.1°C 67.8°F19.9°C 93% 2.3 mph ENE3.7 kmh ENE 6.0 mph9.7 kmh 30.26 in1024.7 mb 0.00 in0.0 mm 0.00 in0.0 mm 0.00 in0.0 mm
06:39 AM 69.9°F21.1°C 67.8°F19.9°C 93% 3.2 mph NE5.1 kmh NE 6.0 mph9.7 kmh 30.26 in1024.7 mb 0.00 in0.0 mm 0.00 in0.0 mm 0.00 in0.0 mm
06:44 AM 69.8°F21.0°C 67.7°F19.8°C 93% 2.8 mph NE4.5 kmh NE 7.0 mph11.3 kmh 30.26 in1024.7 mb 0.00 in0.0 mm 0.00 in0.0 mm 0.00 in0.0 mm
06:49 AM 69.8°F21.0°C 67.7°F19.8°C 93% 1.7 mph ENE2.7 kmh ENE 7.0 mph11.3 kmh 30.26 in1024.7 mb 0.00 in0.0 mm 0.00 in0.0 mm 0.00 in0.0 mm
06:54 AM 69.7°F20.9°C 67.6°F19.8°C 93% 1.5 mph ENE2.4 kmh ENE 7.0 mph11.3 kmh 30.27 in1025.1 mb 0.00 in0.0 mm 0.00 in0.0 mm 0.00 in0.0 mm
06:58 AM 69.7°F20.9°C 67.6°F19.8°C 93% 1.7 mph ENE2.7 kmh ENE 7.0 mph11.3 kmh 30.27 in1025.1 mb 0.00 in0.0 mm 0.00 in0.0 mm 0.00 in0.0 mm
07:03 AM 69.7°F20.9°C 67.6°F19.8°C 93% 1.7 mph ENE2.7 kmh ENE 5.0 mph8.0 kmh 30.27 in1025.1 mb 0.00 in0.0 mm 0.00 in0.0 mm 0.00 in0.0 mm
07:08 AM 69.7°F20.9°C 67.6°F19.8°C 93% 1.0 mph E1.6 kmh E 5.0 mph8.0 kmh 30.27 in1025.1 mb 0.00 in0.0 mm 0.00 in0.0 mm 0.00 in0.0 mm
07:13 AM 69.7°F20.9°C 67.6°F19.8°C 93% 1.8 mph ENE2.9 kmh ENE 4.0 mph6.4 kmh 30.27 in1025.1 mb 0.00 in0.0 mm 0.00 in0.0 mm 0.00 in0.0 mm
07:18 AM 69.7°F20.9°C 67.6°F19.8°C 93% 2.2 mph NE3.5 kmh NE 4.0 mph6.4 kmh 30.28 in1025.4 mb 0.00 in0.0 mm 0.00 in0.0 mm 0.00 in0.0 mm
07:23 AM 69.7°F20.9°C 67.6°F19.8°C 93% 2.7 mph NE4.3 kmh NE 4.0 mph6.4 kmh 30.28 in1025.4 mb 0.00 in0.0 mm 0.00 in0.0 mm 0.00 in0.0 mm
07:28 AM 69.5°F20.8°C 67.4°F19.7°C 93% 2.0 mph NE3.2 kmh NE 4.0 mph6.4 kmh 30.28 in1025.4 mb 0.00 in0.0 mm 0.00 in0.0 mm 0.00 in0.0 mm
07:33 AM 69.4°F20.8°C 67.6°F19.8°C 94% 2.1 mph NE3.4 kmh NE 4.0 mph6.4 kmh 30.28 in1025.4 mb 0.00 in0.0 mm 0.00 in0.0 mm 0.00 in0.0 mm
07:38 AM 69.5°F20.8°C 67.7°F19.8°C 94% 2.9 mph NE4.7 kmh NE 5.0 mph8.0 kmh 30.28 in1025.4 mb 0.00 in0.0 mm 0.00 in0.0 mm 0.00 in0.0 mm
07:43 AM 69.6°F20.9°C 67.5°F19.7°C 93% 2.7 mph NE4.3 kmh NE 6.0 mph9.7 kmh 30.28 in1025.4 mb 0.00 in0.0 mm 0.00 in0.0 mm 0.00 in0.0 mm
07:48 AM 69.8°F21.0°C 67.7°F19.8°C 93% 3.6 mph NE5.8 kmh NE 6.0 mph9.7 kmh 30.28 in1025.4 mb 0.00 in0.0 mm 0.00 in0.0 mm 0.00 in0.0 mm
07:53 AM 70.0°F21.1°C 67.9°F19.9°C 93% 2.0 mph NE3.2 kmh NE 6.0 mph9.7 kmh 30.28 in1025.4 mb 0.00 in0.0 mm 0.00 in0.0 mm 0.00 in0.0 mm
07:58 AM 70.2°F21.2°C 68.1°F20.1°C 93% 3.0 mph NE4.8 kmh NE 8.0 mph12.9 kmh 30.29 in1025.7 mb 0.00 in0.0 mm 0.00 in0.0 mm 0.00 in0.0 mm
08:03 AM 70.5°F21.4°C 68.3°F20.2°C 93% 2.5 mph NNE4.0 kmh NNE 8.0 mph12.9 kmh 30.29 in1025.7 mb 0.00 in0.0 mm 0.00 in0.0 mm 0.00 in0.0 mm
08:08 AM 70.5°F21.4°C 68.0°F20.0°C 92% 3.2 mph NE5.1 kmh NE 8.0 mph12.9 kmh 30.29 in1025.7 mb 0.00 in0.0 mm 0.00 in0.0 mm 0.00 in0.0 mm
08:13 AM 70.8°F21.6°C 68.3°F20.2°C 92% 3.1 mph NE5.0 kmh NE 7.0 mph11.3 kmh 30.29 in1025.7 mb 0.00 in0.0 mm 0.00 in0.0 mm 0.00 in0.0 mm
08:18 AM 71.2°F21.8°C 68.4°F20.2°C 91% 2.4 mph ENE3.9 kmh ENE 7.0 mph11.3 kmh 30.30 in1026.1 mb 0.00 in0.0 mm 0.00 in0.0 mm 0.00 in0.0 mm
08:23 AM 71.8°F22.1°C 69.0°F20.6°C 91% 1.6 mph ENE2.6 kmh ENE 7.0 mph11.3 kmh 30.29 in1025.7 mb 0.00 in0.0 mm 0.00 in0.0 mm 0.00 in0.0 mm
08:28 AM 72.0°F22.2°C 68.6°F20.3°C 89% 2.8 mph E4.5 kmh E 8.0 mph12.9 kmh 30.30 in1026.1 mb 0.00 in0.0 mm 0.00 in0.0 mm 0.00 in0.0 mm
08:33 AM 72.1°F22.3°C 68.3°F20.2°C 88% 4.7 mph E7.6 kmh E 8.0 mph12.9 kmh 30.30 in1026.1 mb 0.00 in0.0 mm 0.00 in0.0 mm 0.00 in0.0 mm
08:38 AM 72.3°F22.4°C 68.5°F20.3°C 88% 2.6 mph ENE4.2 kmh ENE 8.0 mph12.9 kmh 30.30 in1026.1 mb 0.00 in0.0 mm 0.00 in0.0 mm 0.00 in0.0 mm
08:43 AM 72.5°F22.5°C 68.4°F20.2°C 87% 5.1 mph ENE8.2 kmh ENE 8.0 mph12.9 kmh 30.30 in1026.1 mb 0.00 in0.0 mm 0.00 in0.0 mm 0.00 in0.0 mm
08:48 AM 72.6°F22.6°C 68.2°F20.1°C 86% 4.8 mph ENE7.7 kmh ENE 11.0 mph17.7 kmh 30.30 in1026.1 mb 0.00 in0.0 mm 0.00 in0.0 mm 0.00 in0.0 mm
08:53 AM 72.8°F22.7°C 68.4°F20.2°C 86% 3.4 mph E5.5 kmh E 11.0 mph17.7 kmh 30.30 in1026.1 mb 0.00 in0.0 mm 0.00 in0.0 mm 0.00 in0.0 mm
08:58 AM 73.0°F22.8°C 68.6°F20.3°C 86% 4.5 mph NE7.2 kmh NE 11.0 mph17.7 kmh 30.30 in1026.1 mb 0.00 in0.0 mm 0.00 in0.0 mm 0.00 in0.0 mm
09:03 AM 73.3°F22.9°C 68.2°F20.1°C 84% 4.2 mph E6.8 kmh E 11.0 mph17.7 kmh 30.30 in1026.1 mb 0.00 in0.0 mm 0.00 in0.0 mm 0.00 in0.0 mm
09:08 AM 73.5°F23.1°C 68.1°F20.1°C 83% 5.6 mph E9.0 kmh E 14.0 mph22.5 kmh 30.30 in1026.1 mb 0.00 in0.0 mm 0.00 in0.0 mm 0.00 in0.0 mm
09:13 AM 73.6°F23.1°C 67.8°F19.9°C 82% 5.5 mph ENE8.9 kmh ENE 14.0 mph22.5 kmh 30.30 in1026.1 mb 0.00 in0.0 mm 0.00 in0.0 mm 0.00 in0.0 mm
09:18 AM 73.7°F23.2°C 67.9°F19.9°C 82% 5.1 mph E8.2 kmh E 14.0 mph22.5 kmh 30.30 in1026.1 mb 0.00 in0.0 mm 0.00 in0.0 mm 0.00 in0.0 mm
09:23 AM 74.0°F23.3°C 67.9°F19.9°C 81% 4.7 mph ENE7.6 kmh ENE 14.0 mph22.5 kmh 30.30 in1026.1 mb 0.00 in0.0 mm 0.00 in0.0 mm 0.00 in0.0 mm
09:28 AM 74.2°F23.4°C 68.1°F20.1°C 81% 4.2 mph ENE6.8 kmh ENE 10.0 mph16.1 kmh 30.30 in1026.1 mb 0.00 in0.0 mm 0.00 in0.0 mm 0.00 in0.0 mm
09:33 AM 74.1°F23.4°C 67.2°F19.6°C 79% 6.7 mph E10.8 kmh E 12.0 mph19.3 kmh 30.30 in1026.1 mb 0.00 in0.0 mm 0.00 in0.0 mm 0.00 in0.0 mm
09:38 AM 74.2°F23.4°C 67.0°F19.4°C 78% 4.6 mph ENE7.4 kmh ENE 13.0 mph20.9 kmh 30.30 in1026.1 mb 0.00 in0.0 mm 0.00 in0.0 mm 0.00 in0.0 mm
09:43 AM 74.6°F23.7°C 67.4°F19.7°C 78% 5.5 mph ENE8.9 kmh ENE 13.0 mph20.9 kmh 30.30 in1026.1 mb 0.00 in0.0 mm 0.00 in0.0 mm 0.00 in0.0 mm
09:48 AM 74.7°F23.7°C 66.8°F19.3°C 76% 5.4 mph E8.7 kmh E 13.0 mph20.9 kmh 30.30 in1026.1 mb 0.00 in0.0 mm 0.00 in0.0 mm 0.00 in0.0 mm
09:53 AM 74.8°F23.8°C 66.1°F18.9°C 74% 6.1 mph ENE9.8 kmh ENE 15.0 mph24.1 kmh 30.30 in1026.1 mb 0.00 in0.0 mm 0.00 in0.0 mm 0.00 in0.0 mm
09:58 AM 75.1°F23.9°C 66.4°F19.1°C 74% 6.0 mph E9.7 kmh E 15.0 mph24.1 kmh 30.30 in1026.1 mb 0.00 in0.0 mm 0.00 in0.0 mm 0.00 in0.0 mm
10:03 AM 75.5°F24.2°C 67.2°F19.6°C 75% 4.9 mph E7.9 kmh E 15.0 mph24.1 kmh 30.30 in1026.1 mb 0.00 in0.0 mm 0.00 in0.0 mm 0.00 in0.0 mm
10:08 AM 75.6°F24.2°C 66.3°F19.1°C 73% 2.6 mph E4.2 kmh E 15.0 mph24.1 kmh 30.30 in1026.1 mb 0.00 in0.0 mm 0.00 in0.0 mm 0.00 in0.0 mm
10:13 AM 75.9°F24.4°C 66.4°F19.1°C 72% 5.8 mph E9.3 kmh E 14.0 mph22.5 kmh 30.30 in1026.1 mb 0.00 in0.0 mm 0.00 in0.0 mm 0.00 in0.0 mm
10:18 AM 75.9°F24.4°C 66.4°F19.1°C 72% 5.1 mph SE8.2 kmh SE 12.0 mph19.3 kmh 30.30 in1026.1 mb 0.00 in0.0 mm 0.00 in0.0 mm 0.00 in0.0 mm
10:23 AM 76.1°F24.5°C 66.0°F18.9°C 71% 7.6 mph E12.2 kmh E 12.0 mph19.3 kmh 30.30 in1026.1 mb 0.00 in0.0 mm 0.00 in0.0 mm 0.00 in0.0 mm
10:28 AM 76.2°F24.6°C 66.7°F19.3°C 72% 4.6 mph E7.4 kmh E 12.0 mph19.3 kmh 30.29 in1025.7 mb 0.00 in0.0 mm 0.00 in0.0 mm 0.00 in0.0 mm
10:33 AM 76.7°F24.8°C 66.6°F19.2°C 71% 3.1 mph NE5.0 kmh NE 12.0 mph19.3 kmh 30.30 in1026.1 mb 0.00 in0.0 mm 0.00 in0.0 mm 0.00 in0.0 mm
10:38 AM 76.7°F24.8°C 66.4°F19.1°C 70% 3.9 mph E6.3 kmh E 13.0 mph20.9 kmh 30.30 in1026.1 mb 0.00 in0.0 mm 0.00 in0.0 mm 0.00 in0.0 mm
10:43 AM 76.9°F24.9°C 65.1°F18.4°C 67% 4.6 mph E7.4 kmh E 13.0 mph20.9 kmh 30.30 in1026.1 mb 0.00 in0.0 mm 0.00 in0.0 mm 0.00 in0.0 mm
10:48 AM 77.3°F25.2°C 66.1°F18.9°C 68% 2.5 mph ESE4.0 kmh ESE 13.0 mph20.9 kmh 30.29 in1025.7 mb 0.00 in0.0 mm 0.00 in0.0 mm 0.00 in0.0 mm
10:53 AM 77.6°F25.3°C 66.8°F19.3°C 69% 4.0 mph NE6.4 kmh NE 13.0 mph20.9 kmh 30.29 in1025.7 mb 0.00 in0.0 mm 0.00 in0.0 mm 0.00 in0.0 mm
10:58 AM 77.6°F25.3°C 65.8°F18.8°C 67% 3.7 mph ENE6.0 kmh ENE 9.0 mph14.5 kmh 30.29 in1025.7 mb 0.00 in0.0 mm 0.00 in0.0 mm 0.00 in0.0 mm
11:03 AM 77.5°F25.3°C 66.7°F19.3°C 69% 4.9 mph ENE7.9 kmh ENE 9.0 mph14.5 kmh 30.29 in1025.7 mb 0.00 in0.0 mm 0.00 in0.0 mm 0.00 in0.0 mm
11:08 AM 77.6°F25.3°C 66.4°F19.1°C 68% 5.0 mph NE8.0 kmh NE 11.0 mph17.7 kmh 30.29 in1025.7 mb 0.00 in0.0 mm 0.00 in0.0 mm 0.00 in0.0 mm
11:13 AM 77.7°F25.4°C 66.1°F18.9°C 67% 5.1 mph NE8.2 kmh NE 12.0 mph19.3 kmh 30.29 in1025.7 mb 0.00 in0.0 mm 0.00 in0.0 mm 0.00 in0.0 mm
11:18 AM 77.8°F25.4°C 65.5°F18.6°C 66% 4.5 mph NE7.2 kmh NE 12.0 mph19.3 kmh 30.29 in1025.7 mb 0.00 in0.0 mm 0.00 in0.0 mm 0.00 in0.0 mm
11:23 AM 77.9°F25.5°C 65.0°F18.3°C 64% 8.1 mph NE13.0 kmh NE 12.0 mph19.3 kmh 30.29 in1025.7 mb 0.00 in0.0 mm 0.00 in0.0 mm 0.00 in0.0 mm
11:28 AM 78.0°F25.6°C 65.5°F18.6°C 65% 3.6 mph NE5.8 kmh NE 12.0 mph19.3 kmh 30.29 in1025.7 mb 0.00 in0.0 mm 0.00 in0.0 mm 0.00 in0.0 mm
11:33 AM 78.6°F25.9°C 64.9°F18.3°C 63% 5.8 mph NE9.3 kmh NE 12.0 mph19.3 kmh 30.29 in1025.7 mb 0.00 in0.0 mm 0.00 in0.0 mm 0.00 in0.0 mm
11:38 AM 78.5°F25.8°C 64.6°F18.1°C 62% 8.3 mph NE13.4 kmh NE 14.0 mph22.5 kmh 30.29 in1025.7 mb 0.00 in0.0 mm 0.00 in0.0 mm 0.00 in0.0 mm
11:43 AM 78.5°F25.8°C 64.6°F18.1°C 62% 8.4 mph NE13.5 kmh NE 15.0 mph24.1 kmh 30.28 in1025.4 mb 0.00 in0.0 mm 0.00 in0.0 mm 0.00 in0.0 mm
11:48 AM 78.4°F25.8°C 64.5°F18.1°C 62% 6.8 mph NE10.9 kmh NE 15.0 mph24.1 kmh 30.28 in1025.4 mb 0.00 in0.0 mm 0.00 in0.0 mm 0.00 in0.0 mm
11:53 AM 78.8°F26.0°C 63.5°F17.5°C 59% 8.4 mph NE13.5 kmh NE 15.0 mph24.1 kmh 30.28 in1025.4 mb 0.00 in0.0 mm 0.00 in0.0 mm 0.00 in0.0 mm
11:58 AM 79.0°F26.1°C 65.1°F18.4°C 62% 5.8 mph NE9.3 kmh NE 15.0 mph24.1 kmh 30.28 in1025.4 mb 0.00 in0.0 mm 0.00 in0.0 mm 0.00 in0.0 mm
12:03 PM 79.0°F26.1°C 64.6°F18.1°C 61% 8.1 mph NE13.0 kmh NE 14.0 mph22.5 kmh 30.28 in1025.4 mb 0.00 in0.0 mm 0.00 in0.0 mm 0.00 in0.0 mm
12:08 PM 79.2°F26.2°C 64.8°F18.2°C 61% 6.7 mph NE10.8 kmh NE 14.0 mph22.5 kmh 30.28 in1025.4 mb 0.00 in0.0 mm 0.00 in0.0 mm 0.00 in0.0 mm
12:13 PM 79.1°F26.2°C 64.7°F18.2°C 61% 5.8 mph NE9.3 kmh NE 14.0 mph22.5 kmh 30.28 in1025.4 mb 0.00 in0.0 mm 0.00 in0.0 mm 0.00 in0.0 mm
12:18 PM 79.3°F26.3°C 65.4°F18.6°C 62% 3.6 mph NE5.8 kmh NE 14.0 mph22.5 kmh 30.28 in1025.4 mb 0.00 in0.0 mm 0.00 in0.0 mm 0.00 in0.0 mm
12:23 PM 79.4°F26.3°C 64.5°F18.1°C 60% 7.4 mph E11.9 kmh E 13.0 mph20.9 kmh 30.27 in1025.1 mb 0.00 in0.0 mm 0.00 in0.0 mm 0.00 in0.0 mm
12:28 PM 79.6°F26.4°C 65.0°F18.3°C 61% 4.2 mph E6.8 kmh E 13.0 mph20.9 kmh 30.27 in1025.1 mb 0.00 in0.0 mm 0.00 in0.0 mm 0.00 in0.0 mm
12:33 PM 79.8°F26.6°C 65.4°F18.6°C 61% 4.2 mph ENE6.8 kmh ENE 13.0 mph20.9 kmh 30.27 in1025.1 mb 0.00 in0.0 mm 0.00 in0.0 mm 0.00 in0.0 mm
12:38 PM 79.9°F26.6°C 65.0°F18.3°C 60% 6.4 mph E10.3 kmh E 13.0 mph20.9 kmh 30.27 in1025.1 mb 0.00 in0.0 mm 0.00 in0.0 mm 0.00 in0.0 mm
12:43 PM 79.9°F26.6°C 65.5°F18.6°C 61% 5.2 mph ENE8.4 kmh ENE 12.0 mph19.3 kmh 30.27 in1025.1 mb 0.00 in0.0 mm 0.00 in0.0 mm 0.00 in0.0 mm
12:48 PM 79.8°F26.6°C 64.4°F18.0°C 59% 6.9 mph E11.1 kmh E 12.0 mph19.3 kmh 30.26 in1024.7 mb 0.00 in0.0 mm 0.00 in0.0 mm 0.00 in0.0 mm
12:53 PM 79.9°F26.6°C 65.0°F18.3°C 60% 6.3 mph NE10.1 kmh NE 12.0 mph19.3 kmh 30.26 in1024.7 mb 0.00 in0.0 mm 0.00 in0.0 mm 0.00 in0.0 mm
12:58 PM 80.0°F26.7°C 63.9°F17.7°C 58% 5.1 mph NE8.2 kmh NE 12.0 mph19.3 kmh 30.26 in1024.7 mb 0.00 in0.0 mm 0.00 in0.0 mm 0.00 in0.0 mm
01:03 PM 80.5°F26.9°C 65.6°F18.7°C 60% 3.7 mph ENE6.0 kmh ENE 12.0 mph19.3 kmh 30.26 in1024.7 mb 0.00 in0.0 mm 0.00 in0.0 mm 0.00 in0.0 mm
01:08 PM 80.4°F26.9°C 64.5°F18.1°C 58% 3.9 mph E6.3 kmh E 12.0 mph19.3 kmh 30.25 in1024.4 mb 0.00 in0.0 mm 0.00 in0.0 mm 0.00 in0.0 mm
01:13 PM 80.5°F26.9°C 64.6°F18.1°C 58% 6.0 mph E9.7 kmh E 11.0 mph17.7 kmh 30.25 in1024.4 mb 0.00 in0.0 mm 0.00 in0.0 mm 0.00 in0.0 mm
01:18 PM 80.7°F27.1°C 64.5°F18.1°C 58% 4.4 mph NE7.1 kmh NE 11.0 mph17.7 kmh 30.25 in1024.4 mb 0.00 in0.0 mm 0.00 in0.0 mm 0.00 in0.0 mm
01:23 PM 80.7°F27.1°C 64.8°F18.2°C 58% 4.7 mph ENE7.6 kmh ENE 11.0 mph17.7 kmh 30.25 in1024.4 mb 0.00 in0.0 mm 0.00 in0.0 mm 0.00 in0.0 mm
01:28 PM 80.6°F27.0°C 65.2°F18.4°C 59% 3.8 mph E6.1 kmh E 11.0 mph17.7 kmh 30.25 in1024.4 mb 0.00 in0.0 mm 0.00 in0.0 mm 0.00 in0.0 mm
01:33 PM 80.8°F27.1°C 63.8°F17.7°C 56% 4.5 mph E7.2 kmh E 12.0 mph19.3 kmh 30.25 in1024.4 mb 0.00 in0.0 mm 0.00 in0.0 mm 0.00 in0.0 mm
01:38 PM 81.2°F27.3°C 64.5°F18.1°C 57% 3.3 mph E5.3 kmh E 12.0 mph19.3 kmh 30.25 in1024.4 mb 0.00 in0.0 mm 0.00 in0.0 mm 0.00 in0.0 mm
01:43 PM 81.0°F27.2°C 63.5°F17.5°C 55% 4.9 mph E7.9 kmh E 12.0 mph19.3 kmh 30.24 in1024.0 mb 0.00 in0.0 mm 0.00 in0.0 mm 0.00 in0.0 mm
01:48 PM 81.2°F27.3°C 64.2°F17.9°C 56% 4.5 mph NE7.2 kmh NE 12.0 mph19.3 kmh 30.24 in1024.0 mb 0.00 in0.0 mm 0.00 in0.0 mm 0.00 in0.0 mm
01:53 PM 81.4°F27.4°C 61.0°F16.1°C 50% 6.1 mph ENE9.8 kmh ENE 12.0 mph19.3 kmh 30.24 in1024.0 mb 0.00 in0.0 mm 0.00 in0.0 mm 0.00 in0.0 mm
01:58 PM 81.5°F27.5°C 61.8°F16.6°C 51% 5.8 mph E9.3 kmh E 12.0 mph19.3 kmh 30.23 in1023.7 mb 0.00 in0.0 mm 0.00 in0.0 mm 0.00 in0.0 mm
02:03 PM 81.7°F27.6°C 62.5°F16.9°C 52% 4.0 mph ESE6.4 kmh ESE 12.0 mph19.3 kmh 30.23 in1023.7 mb 0.00 in0.0 mm 0.00 in0.0 mm 0.00 in0.0 mm
02:08 PM 82.1°F27.8°C 63.4°F17.4°C 53% 3.2 mph NE5.1 kmh NE 12.0 mph19.3 kmh 30.23 in1023.7 mb 0.00 in0.0 mm 0.00 in0.0 mm 0.00 in0.0 mm
02:13 PM 82.7°F28.2°C 61.7°F16.5°C 49% 5.1 mph E8.2 kmh E 12.0 mph19.3 kmh 30.23 in1023.7 mb 0.00 in0.0 mm 0.00 in0.0 mm 0.00 in0.0 mm
02:18 PM 82.2°F27.9°C 63.0°F17.2°C 52% 2.5 mph ENE4.0 kmh ENE 9.0 mph14.5 kmh 30.22 in1023.4 mb 0.00 in0.0 mm 0.00 in0.0 mm 0.00 in0.0 mm
02:23 PM 82.3°F27.9°C 63.1°F17.3°C 52% 6.8 mph NE10.9 kmh NE 12.0 mph19.3 kmh 30.22 in1023.4 mb 0.00 in0.0 mm 0.00 in0.0 mm 0.00 in0.0 mm
02:28 PM 82.5°F28.1°C 62.7°F17.1°C 51% 4.3 mph NE6.9 kmh NE 12.0 mph19.3 kmh 30.22 in1023.4 mb 0.00 in0.0 mm 0.00 in0.0 mm 0.00 in0.0 mm
02:33 PM 82.6°F28.1°C 62.8°F17.1°C 51% 4.3 mph E6.9 kmh E 12.0 mph19.3 kmh 30.22 in1023.4 mb 0.00 in0.0 mm 0.00 in0.0 mm 0.00 in0.0 mm
02:38 PM 82.5°F28.1°C 62.7°F17.1°C 51% 3.2 mph ENE5.1 kmh ENE 12.0 mph19.3 kmh 30.22 in1023.4 mb 0.00 in0.0 mm 0.00 in0.0 mm 0.00 in0.0 mm
02:43 PM 82.8°F28.2°C 62.4°F16.9°C 50% 4.2 mph NE6.8 kmh NE 9.0 mph14.5 kmh 30.22 in1023.4 mb 0.00 in0.0 mm 0.00 in0.0 mm 0.00 in0.0 mm
02:48 PM 82.6°F28.1°C 62.6°F17.0°C 51% 7.8 mph NE12.6 kmh NE 13.0 mph20.9 kmh 30.22 in1023.4 mb 0.00 in0.0 mm 0.00 in0.0 mm 0.00 in0.0 mm
02:53 PM 82.1°F27.8°C 62.9°F17.2°C 52% 3.8 mph NE6.1 kmh NE 13.0 mph20.9 kmh 30.22 in1023.4 mb 0.00 in0.0 mm 0.00 in0.0 mm 0.00 in0.0 mm
02:58 PM 82.3°F27.9°C 63.1°F17.3°C 52% 4.7 mph NE7.6 kmh NE 13.0 mph20.9 kmh 30.22 in1023.4 mb 0.00 in0.0 mm 0.00 in0.0 mm 0.00 in0.0 mm
03:03 PM 82.4°F28.0°C 62.0°F16.7°C 50% 4.7 mph E7.6 kmh E 13.0 mph20.9 kmh 30.21 in1023.0 mb 0.00 in0.0 mm 0.00 in0.0 mm 0.00 in0.0 mm
03:08 PM 82.7°F28.2°C 61.7°F16.5°C 49% 4.8 mph E7.7 kmh E 12.0 mph19.3 kmh 30.21 in1023.0 mb 0.00 in0.0 mm 0.00 in0.0 mm 0.00 in0.0 mm
03:13 PM 82.7°F28.2°C 62.3°F16.8°C 50% 4.1 mph E6.6 kmh E 11.0 mph17.7 kmh 30.21 in1023.0 mb 0.00 in0.0 mm 0.00 in0.0 mm 0.00 in0.0 mm
03:18 PM 82.7°F28.2°C 62.3°F16.8°C 50% 5.4 mph NE8.7 kmh NE 11.0 mph17.7 kmh 30.21 in1023.0 mb 0.00 in0.0 mm 0.00 in0.0 mm 0.00 in0.0 mm
03:23 PM 82.8°F28.2°C 61.8°F16.6°C 49% 4.5 mph NE7.2 kmh NE 12.0 mph19.3 kmh 30.21 in1023.0 mb 0.00 in0.0 mm 0.00 in0.0 mm 0.00 in0.0 mm
03:28 PM 82.9°F28.3°C 63.1°F17.3°C 51% 5.1 mph ENE8.2 kmh ENE 12.0 mph19.3 kmh 30.20 in1022.7 mb 0.00 in0.0 mm 0.00 in0.0 mm 0.00 in0.0 mm
03:33 PM 83.0°F28.3°C 62.4°F16.9°C 50% 4.7 mph NE7.6 kmh NE 12.0 mph19.3 kmh 30.20 in1022.7 mb 0.00 in0.0 mm 0.00 in0.0 mm 0.00 in0.0 mm
03:38 PM 83.1°F28.4°C 62.1°F16.7°C 49% 3.5 mph E5.6 kmh E 12.0 mph19.3 kmh 30.20 in1022.7 mb 0.00 in0.0 mm 0.00 in0.0 mm 0.00 in0.0 mm
03:43 PM 83.1°F28.4°C 62.5°F16.9°C 50% 2.1 mph NE3.4 kmh NE 9.0 mph14.5 kmh 30.20 in1022.7 mb 0.00 in0.0 mm 0.00 in0.0 mm 0.00 in0.0 mm
03:48 PM 83.0°F28.3°C 62.0°F16.7°C 49% 6.3 mph ENE10.1 kmh ENE 12.0 mph19.3 kmh 30.20 in1022.7 mb 0.00 in0.0 mm 0.00 in0.0 mm 0.00 in0.0 mm
03:53 PM 82.9°F28.3°C 63.1°F17.3°C 51% 5.3 mph NE8.5 kmh NE 12.0 mph19.3 kmh 30.19 in1022.4 mb 0.00 in0.0 mm 0.00 in0.0 mm 0.00 in0.0 mm
03:58 PM 82.8°F28.2°C 62.4°F16.9°C 50% 5.5 mph ENE8.9 kmh ENE 12.0 mph19.3 kmh 30.19 in1022.4 mb 0.00 in0.0 mm 0.00 in0.0 mm 0.00 in0.0 mm
04:03 PM 82.9°F28.3°C 63.1°F17.3°C 51% 4.5 mph E7.2 kmh E 12.0 mph19.3 kmh 30.19 in1022.4 mb 0.00 in0.0 mm 0.00 in0.0 mm 0.00 in0.0 mm
04:08 PM 82.8°F28.2°C 63.0°F17.2°C 51% 5.1 mph ENE8.2 kmh ENE 10.0 mph16.1 kmh 30.19 in1022.4 mb 0.00 in0.0 mm 0.00 in0.0 mm 0.00 in0.0 mm
04:13 PM 82.8°F28.2°C 63.0°F17.2°C 51% 5.8 mph NE9.3 kmh NE 12.0 mph19.3 kmh 30.19 in1022.4 mb 0.00 in0.0 mm 0.00 in0.0 mm 0.00 in0.0 mm
04:18 PM 82.7°F28.2°C 63.4°F17.4°C 52% 4.6 mph NE7.4 kmh NE 12.0 mph19.3 kmh 30.19 in1022.4 mb 0.00 in0.0 mm 0.00 in0.0 mm 0.00 in0.0 mm
04:23 PM 82.8°F28.2°C 64.1°F17.8°C 53% 1.7 mph NE2.7 kmh NE 12.0 mph19.3 kmh 30.19 in1022.4 mb 0.00 in0.0 mm 0.00 in0.0 mm 0.00 in0.0 mm
04:28 PM 82.8°F28.2°C 63.5°F17.5°C 52% 6.0 mph NE9.7 kmh NE 12.0 mph19.3 kmh 30.19 in1022.4 mb 0.00 in0.0 mm 0.00 in0.0 mm 0.00 in0.0 mm
04:33 PM 82.7°F28.2°C 63.8°F17.7°C 53% 3.8 mph E6.1 kmh E 11.0 mph17.7 kmh 30.19 in1022.4 mb 0.00 in0.0 mm 0.00 in0.0 mm 0.00 in0.0 mm
04:38 PM 82.7°F28.2°C 64.0°F17.8°C 53% 5.3 mph NE8.5 kmh NE 9.0 mph14.5 kmh 30.19 in1022.4 mb 0.00 in0.0 mm 0.00 in0.0 mm 0.00 in0.0 mm
04:43 PM 82.7°F28.2°C 64.6°F18.1°C 54% 2.2 mph ENE3.5 kmh ENE 10.0 mph16.1 kmh 30.19 in1022.4 mb 0.00 in0.0 mm 0.00 in0.0 mm 0.00 in0.0 mm
04:48 PM 82.7°F28.2°C 64.6°F18.1°C 54% 3.7 mph NE6.0 kmh NE 10.0 mph16.1 kmh 30.19 in1022.4 mb 0.00 in0.0 mm 0.00 in0.0 mm 0.00 in0.0 mm
04:53 PM 82.7°F28.2°C 64.9°F18.3°C 55% 2.7 mph ENE4.3 kmh ENE 10.0 mph16.1 kmh 30.19 in1022.4 mb 0.00 in0.0 mm 0.00 in0.0 mm 0.00 in0.0 mm
04:57 PM 82.6°F28.1°C 65.5°F18.6°C 56% 1.9 mph E3.1 kmh E 10.0 mph16.1 kmh 30.18 in1022.0 mb 0.00 in0.0 mm 0.00 in0.0 mm 0.00 in0.0 mm
05:02 PM 82.5°F28.1°C 64.9°F18.3°C 55% 3.2 mph E5.1 kmh E 7.0 mph11.3 kmh 30.19 in1022.4 mb 0.00 in0.0 mm 0.00 in0.0 mm 0.00 in0.0 mm
05:07 PM 82.4°F28.0°C 64.8°F18.2°C 55% 3.4 mph NE5.5 kmh NE 7.0 mph11.3 kmh 30.19 in1022.4 mb 0.00 in0.0 mm 0.00 in0.0 mm 0.00 in0.0 mm
05:12 PM 82.2°F27.9°C 65.2°F18.4°C 56% 2.3 mph E3.7 kmh E 5.0 mph8.0 kmh 30.19 in1022.4 mb 0.00 in0.0 mm 0.00 in0.0 mm 0.00 in0.0 mm
05:17 PM 82.1°F27.8°C 65.4°F18.6°C 57% 3.1 mph NE5.0 kmh NE 7.0 mph11.3 kmh 30.19 in1022.4 mb 0.00 in0.0 mm 0.00 in0.0 mm 0.00 in0.0 mm
05:22 PM 81.9°F27.7°C 65.2°F18.4°C 57% 2.8 mph E4.5 kmh E 7.0 mph11.3 kmh 30.19 in1022.4 mb 0.00 in0.0 mm 0.00 in0.0 mm 0.00 in0.0 mm
05:27 PM 81.8°F27.7°C 66.3°F19.1°C 59% 2.4 mph ENE3.9 kmh ENE 7.0 mph11.3 kmh 30.19 in1022.4 mb 0.00 in0.0 mm 0.00 in0.0 mm 0.00 in0.0 mm
05:32 PM 81.7°F27.6°C 65.7°F18.7°C 58% 2.5 mph NE4.0 kmh NE 7.0 mph11.3 kmh 30.19 in1022.4 mb 0.00 in0.0 mm 0.00 in0.0 mm 0.00 in0.0 mm
05:37 PM 81.6°F27.6°C 65.1°F18.4°C 57% 2.7 mph ENE4.3 kmh ENE 6.0 mph9.7 kmh 30.19 in1022.4 mb 0.00 in0.0 mm 0.00 in0.0 mm 0.00 in0.0 mm
05:42 PM 81.4°F27.4°C 65.4°F18.6°C 58% 2.0 mph ENE3.2 kmh ENE 6.0 mph9.7 kmh 30.19 in1022.4 mb 0.00 in0.0 mm 0.00 in0.0 mm 0.00 in0.0 mm
05:47 PM 81.1°F27.3°C 65.6°F18.7°C 59% 1.2 mph E1.9 kmh E 6.0 mph9.7 kmh 30.19 in1022.4 mb 0.00 in0.0 mm 0.00 in0.0 mm 0.00 in0.0 mm
05:52 PM 80.9°F27.2°C 65.5°F18.6°C 59% 1.4 mph ENE2.3 kmh ENE 6.0 mph9.7 kmh 30.19 in1022.4 mb 0.00 in0.0 mm 0.00 in0.0 mm 0.00 in0.0 mm
05:57 PM 80.5°F26.9°C 65.6°F18.7°C 60% 1.6 mph ENE2.6 kmh ENE 5.0 mph8.0 kmh 30.19 in1022.4 mb 0.00 in0.0 mm 0.00 in0.0 mm 0.00 in0.0 mm
06:02 PM 80.3°F26.8°C 65.4°F18.6°C 60% 2.2 mph NE3.5 kmh NE 5.0 mph8.0 kmh 30.19 in1022.4 mb 0.00 in0.0 mm 0.00 in0.0 mm 0.00 in0.0 mm
06:07 PM 80.1°F26.7°C 65.2°F18.4°C 60% 3.0 mph ENE4.8 kmh ENE 5.0 mph8.0 kmh 30.19 in1022.4 mb 0.00 in0.0 mm 0.00 in0.0 mm 0.00 in0.0 mm
06:12 PM 79.8°F26.6°C 65.2°F18.4°C 61% 1.9 mph ENE3.1 kmh ENE 5.0 mph8.0 kmh 30.19 in1022.4 mb 0.00 in0.0 mm 0.00 in0.0 mm 0.00 in0.0 mm
06:17 PM 79.6°F26.4°C 65.2°F18.4°C 61% 2.2 mph ENE3.5 kmh ENE 5.0 mph8.0 kmh 30.19 in1022.4 mb 0.00 in0.0 mm 0.00 in0.0 mm 0.00 in0.0 mm
06:22 PM 79.4°F26.3°C 65.0°F18.3°C 61% 3.3 mph NE5.3 kmh NE 6.0 mph9.7 kmh 30.19 in1022.4 mb 0.00 in0.0 mm 0.00 in0.0 mm 0.00 in0.0 mm
06:27 PM 79.2°F26.2°C 65.1°F18.4°C 62% 1.3 mph ENE2.1 kmh ENE 6.0 mph9.7 kmh 30.19 in1022.4 mb 0.00 in0.0 mm 0.00 in0.0 mm 0.00 in0.0 mm
06:32 PM 79.0°F26.1°C 65.6°F18.7°C 63% 2.0 mph ENE3.2 kmh ENE 6.0 mph9.7 kmh 30.19 in1022.4 mb 0.00 in0.0 mm 0.00 in0.0 mm 0.00 in0.0 mm
06:37 PM 78.7°F25.9°C 65.7°F18.7°C 64% 1.0 mph E1.6 kmh E 6.0 mph9.7 kmh 30.19 in1022.4 mb 0.00 in0.0 mm 0.00 in0.0 mm 0.00 in0.0 mm
06:43 PM 78.4°F25.8°C 65.4°F18.6°C 64% 1.8 mph ENE2.9 kmh ENE 4.0 mph6.4 kmh 30.19 in1022.4 mb 0.00 in0.0 mm 0.00 in0.0 mm 0.00 in0.0 mm
06:47 PM 78.2°F25.7°C 65.7°F18.7°C 65% 1.3 mph ENE2.1 kmh ENE 3.0 mph4.8 kmh 30.19 in1022.4 mb 0.00 in0.0 mm 0.00 in0.0 mm 0.00 in0.0 mm
06:53 PM 78.0°F25.6°C 65.3°F18.5°C 65% 1.0 mph ENE1.6 kmh ENE 3.0 mph4.8 kmh 30.19 in1022.4 mb 0.00 in0.0 mm 0.00 in0.0 mm 0.00 in0.0 mm
06:58 PM 77.9°F25.5°C 65.4°F18.6°C 65% 1.0 mph ENE1.6 kmh ENE 3.0 mph4.8 kmh 30.19 in1022.4 mb 0.00 in0.0 mm 0.00 in0.0 mm 0.00 in0.0 mm
07:03 PM 77.7°F25.4°C 65.2°F18.4°C 65% 1.5 mph ENE2.4 kmh ENE 3.0 mph4.8 kmh 30.19 in1022.4 mb 0.00 in0.0 mm 0.00 in0.0 mm 0.00 in0.0 mm
07:08 PM 77.5°F25.3°C 65.0°F18.3°C 65% 1.3 mph E2.1 kmh E 3.0 mph4.8 kmh 30.19 in1022.4 mb 0.00 in0.0 mm 0.00 in0.0 mm 0.00 in0.0 mm
07:12 PM 77.4°F25.2°C 64.9°F18.3°C 65% 1.6 mph ENE2.6 kmh ENE 4.0 mph6.4 kmh 30.19 in1022.4 mb 0.00 in0.0 mm 0.00 in0.0 mm 0.00 in0.0 mm
07:18 PM 77.4°F25.2°C 64.9°F18.3°C 65% 1.8 mph ENE2.9 kmh ENE 4.0 mph6.4 kmh 30.19 in1022.4 mb 0.00 in0.0 mm 0.00 in0.0 mm 0.00 in0.0 mm
07:23 PM 77.2°F25.1°C 65.2°F18.4°C 66% 1.4 mph ENE2.3 kmh ENE 4.0 mph6.4 kmh 30.19 in1022.4 mb 0.00 in0.0 mm 0.00 in0.0 mm 0.00 in0.0 mm
07:28 PM 77.0°F25.0°C 64.8°F18.2°C 66% 1.3 mph ENE2.1 kmh ENE 4.0 mph6.4 kmh 30.20 in1022.7 mb 0.00 in0.0 mm 0.00 in0.0 mm 0.00 in0.0 mm
07:33 PM 77.0°F25.0°C 65.0°F18.3°C 66% 1.1 mph ENE1.8 kmh ENE 4.0 mph6.4 kmh 30.20 in1022.7 mb 0.00 in0.0 mm 0.00 in0.0 mm 0.00 in0.0 mm
07:38 PM 76.8°F24.9°C 64.8°F18.2°C 66% 1.8 mph ENE2.9 kmh ENE 4.0 mph6.4 kmh 30.20 in1022.7 mb 0.00 in0.0 mm 0.00 in0.0 mm 0.00 in0.0 mm
07:43 PM 76.8°F24.9°C 65.2°F18.4°C 67% 1.6 mph ENE2.6 kmh ENE 3.0 mph4.8 kmh 30.20 in1022.7 mb 0.00 in0.0 mm 0.00 in0.0 mm 0.00 in0.0 mm
07:48 PM 76.6°F24.8°C 64.8°F18.2°C 67% 1.0 mph NE1.6 kmh NE 3.0 mph4.8 kmh 30.20 in1022.7 mb 0.00 in0.0 mm 0.00 in0.0 mm 0.00 in0.0 mm
07:53 PM 76.4°F24.7°C 65.1°F18.4°C 68% 1.0 mph NE1.6 kmh NE 3.0 mph4.8 kmh 30.20 in1022.7 mb 0.00 in0.0 mm 0.00 in0.0 mm 0.00 in0.0 mm
07:58 PM 76.3°F24.6°C 64.8°F18.2°C 67% 1.2 mph ENE1.9 kmh ENE 3.0 mph4.8 kmh 30.21 in1023.0 mb 0.00 in0.0 mm 0.00 in0.0 mm 0.00 in0.0 mm
08:03 PM 76.3°F24.6°C 64.5°F18.1°C 67% 1.4 mph E2.3 kmh E 3.0 mph4.8 kmh 30.21 in1023.0 mb 0.00 in0.0 mm 0.00 in0.0 mm 0.00 in0.0 mm
08:08 PM 76.2°F24.6°C 64.7°F18.2°C 67% 2.4 mph ENE3.9 kmh ENE 4.0 mph6.4 kmh 30.21 in1023.0 mb 0.00 in0.0 mm 0.00 in0.0 mm 0.00 in0.0 mm
08:13 PM 76.0°F24.4°C 64.9°F18.3°C 68% 1.3 mph ENE2.1 kmh ENE 4.0 mph6.4 kmh 30.21 in1023.0 mb 0.00 in0.0 mm 0.00 in0.0 mm 0.00 in0.0 mm
08:18 PM 75.8°F24.3°C 64.9°F18.3°C 69% 1.4 mph E2.3 kmh E 4.0 mph6.4 kmh 30.21 in1023.0 mb 0.00 in0.0 mm 0.00 in0.0 mm 0.00 in0.0 mm
08:23 PM 75.6°F24.2°C 64.9°F18.3°C 69% 1.4 mph E2.3 kmh E 4.0 mph6.4 kmh 30.21 in1023.0 mb 0.00 in0.0 mm 0.00 in0.0 mm 0.00 in0.0 mm
08:28 PM 75.5°F24.2°C 64.8°F18.2°C 69% 1.6 mph ENE2.6 kmh ENE 3.0 mph4.8 kmh 30.21 in1023.0 mb 0.00 in0.0 mm 0.00 in0.0 mm 0.00 in0.0 mm
08:33 PM 75.5°F24.2°C 64.8°F18.2°C 69% 1.5 mph ENE2.4 kmh ENE 3.0 mph4.8 kmh 30.21 in1023.0 mb 0.00 in0.0 mm 0.00 in0.0 mm 0.00 in0.0 mm
08:38 PM 75.4°F24.1°C 64.5°F18.1°C 69% 1.5 mph ENE2.4 kmh ENE 3.0 mph4.8 kmh 30.21 in1023.0 mb 0.00 in0.0 mm 0.00 in0.0 mm 0.00 in0.0 mm
08:43 PM 75.3°F24.1°C 64.6°F18.1°C 69% 2.6 mph ENE4.2 kmh ENE 4.0 mph6.4 kmh 30.21 in1023.0 mb 0.00 in0.0 mm 0.00 in0.0 mm 0.00 in0.0 mm
08:48 PM 75.1°F23.9°C 64.8°F18.2°C 70% 1.5 mph E2.4 kmh E 4.0 mph6.4 kmh 30.22 in1023.4 mb 0.00 in0.0 mm 0.00 in0.0 mm 0.00 in0.0 mm
08:53 PM 74.8°F23.8°C 65.0°F18.3°C 71% 1.7 mph E2.7 kmh E 4.0 mph6.4 kmh 30.22 in1023.4 mb 0.00 in0.0 mm 0.00 in0.0 mm 0.00 in0.0 mm
08:58 PM 74.5°F23.6°C 65.1°F18.4°C 72% 2.6 mph ENE4.2 kmh ENE 5.0 mph8.0 kmh 30.22 in1023.4 mb 0.00 in0.0 mm 0.00 in0.0 mm 0.00 in0.0 mm
09:03 PM 74.4°F23.6°C 65.4°F18.6°C 73% 2.0 mph E3.2 kmh E 5.0 mph8.0 kmh 30.22 in1023.4 mb 0.00 in0.0 mm 0.00 in0.0 mm 0.00 in0.0 mm
09:08 PM 74.4°F23.6°C 65.4°F18.6°C 73% 1.9 mph ENE3.1 kmh ENE 5.0 mph8.0 kmh 30.22 in1023.4 mb 0.00 in0.0 mm 0.00 in0.0 mm 0.00 in0.0 mm
09:13 PM 74.2°F23.4°C 65.5°F18.6°C 74% 1.6 mph E2.6 kmh E 5.0 mph8.0 kmh 30.22 in1023.4 mb 0.00 in0.0 mm 0.00 in0.0 mm 0.00 in0.0 mm
09:18 PM 74.0°F23.3°C 65.2°F18.4°C 74% 1.6 mph E2.6 kmh E 4.0 mph6.4 kmh 30.23 in1023.7 mb 0.00 in0.0 mm 0.00 in0.0 mm 0.00 in0.0 mm
09:23 PM 73.9°F23.3°C 65.6°F18.7°C 75% 1.7 mph E2.7 kmh E 4.0 mph6.4 kmh 30.22 in1023.4 mb 0.00 in0.0 mm 0.00 in0.0 mm 0.00 in0.0 mm
09:28 PM 73.8°F23.2°C 65.9°F18.8°C 76% 1.7 mph E2.7 kmh E 4.0 mph6.4 kmh 30.22 in1023.4 mb 0.00 in0.0 mm 0.00 in0.0 mm 0.00 in0.0 mm
09:33 PM 73.7°F23.2°C 65.8°F18.8°C 76% 1.0 mph E1.6 kmh E 3.0 mph4.8 kmh 30.23 in1023.7 mb 0.00 in0.0 mm 0.00 in0.0 mm 0.00 in0.0 mm
09:38 PM 73.6°F23.1°C 65.6°F18.7°C 76% 1.1 mph E1.8 kmh E 3.0 mph4.8 kmh 30.23 in1023.7 mb 0.00 in0.0 mm 0.00 in0.0 mm 0.00 in0.0 mm
09:43 PM 73.5°F23.1°C 66.0°F18.9°C 77% 1.0 mph E1.6 kmh E 3.0 mph4.8 kmh 30.23 in1023.7 mb 0.00 in0.0 mm 0.00 in0.0 mm 0.00 in0.0 mm
09:48 PM 73.4°F23.0°C 65.9°F18.8°C 77% 1.6 mph E2.6 kmh E 4.0 mph6.4 kmh 30.23 in1023.7 mb 0.00 in0.0 mm 0.00 in0.0 mm 0.00 in0.0 mm
09:53 PM 73.4°F23.0°C 65.7°F18.7°C 77% 1.5 mph E2.4 kmh E 4.0 mph6.4 kmh 30.23 in1023.7 mb 0.00 in0.0 mm 0.00 in0.0 mm 0.00 in0.0 mm
09:58 PM 73.4°F23.0°C 65.9°F18.8°C 77% 2.5 mph E4.0 kmh E 4.0 mph6.4 kmh 30.23 in1023.7 mb 0.00 in0.0 mm 0.00 in0.0 mm 0.00 in0.0 mm
10:03 PM 73.3°F22.9°C 65.8°F18.8°C 77% 1.8 mph E2.9 kmh E 4.0 mph6.4 kmh 30.23 in1023.7 mb 0.00 in0.0 mm 0.00 in0.0 mm 0.00 in0.0 mm
10:08 PM 73.2°F22.9°C 66.0°F18.9°C 78% 1.5 mph E2.4 kmh E 4.0 mph6.4 kmh 30.23 in1023.7 mb 0.00 in0.0 mm 0.00 in0.0 mm 0.00 in0.0 mm
10:13 PM 73.1°F22.8°C 65.9°F18.8°C 78% 1.3 mph E2.1 kmh E 4.0 mph6.4 kmh 30.23 in1023.7 mb 0.00 in0.0 mm 0.00 in0.0 mm 0.00 in0.0 mm
10:18 PM 73.1°F22.8°C 65.9°F18.8°C 78% 1.5 mph E2.4 kmh E 4.0 mph6.4 kmh 30.23 in1023.7 mb 0.00 in0.0 mm 0.00 in0.0 mm 0.00 in0.0 mm
10:23 PM 72.9°F22.7°C 66.1°F18.9°C 79% 1.5 mph E2.4 kmh E 3.0 mph4.8 kmh 30.23 in1023.7 mb 0.00 in0.0 mm 0.00 in0.0 mm 0.00 in0.0 mm
10:28 PM 72.7°F22.6°C 65.8°F18.8°C 79% 1.4 mph E2.3 kmh E 3.0 mph4.8 kmh 30.23 in1023.7 mb 0.00 in0.0 mm 0.00 in0.0 mm 0.00 in0.0 mm
10:33 PM 72.6°F22.6°C 66.1°F18.9°C 80% 1.0 mph E1.6 kmh E 3.0 mph4.8 kmh 30.23 in1023.7 mb 0.00 in0.0 mm 0.00 in0.0 mm 0.00 in0.0 mm
10:38 PM 72.5°F22.5°C 66.1°F18.9°C 80% 1.6 mph E2.6 kmh E 3.0 mph4.8 kmh 30.23 in1023.7 mb 0.00 in0.0 mm 0.00 in0.0 mm 0.00 in0.0 mm
10:43 PM 72.6°F22.6°C 66.2°F19.0°C 80% 1.9 mph E3.1 kmh E 3.0 mph4.8 kmh 30.23 in1023.7 mb 0.00 in0.0 mm 0.00 in0.0 mm 0.00 in0.0 mm
10:48 PM 72.6°F22.6°C 66.2°F19.0°C 80% 2.6 mph E4.2 kmh E 5.0 mph8.0 kmh 30.23 in1023.7 mb 0.00 in0.0 mm 0.00 in0.0 mm 0.00 in0.0 mm
10:53 PM 72.6°F22.6°C 66.2°F19.0°C 80% 2.5 mph E4.0 kmh E 5.0 mph8.0 kmh 30.23 in1023.7 mb 0.00 in0.0 mm 0.00 in0.0 mm 0.00 in0.0 mm
10:58 PM 72.4°F22.4°C 66.0°F18.9°C 80% 1.6 mph E2.6 kmh E 5.0 mph8.0 kmh 30.23 in1023.7 mb 0.00 in0.0 mm 0.00 in0.0 mm 0.00 in0.0 mm
11:03 PM 72.4°F22.4°C 66.0°F18.9°C 80% 2.5 mph E4.0 kmh E 5.0 mph8.0 kmh 30.23 in1023.7 mb 0.00 in0.0 mm 0.00 in0.0 mm 0.00 in0.0 mm
11:08 PM 72.4°F22.4°C 66.0°F18.9°C 80% 2.1 mph E3.4 kmh E 4.0 mph6.4 kmh 30.23 in1023.7 mb 0.00 in0.0 mm 0.00 in0.0 mm 0.00 in0.0 mm
11:13 PM 72.3°F22.4°C 65.8°F18.8°C 80% 1.9 mph E3.1 kmh E 4.0 mph6.4 kmh 30.22 in1023.4 mb 0.00 in0.0 mm 0.00 in0.0 mm 0.00 in0.0 mm
11:18 PM 72.3°F22.4°C 65.8°F18.8°C 80% 1.7 mph E2.7 kmh E 4.0 mph6.4 kmh 30.22 in1023.4 mb 0.00 in0.0 mm 0.00 in0.0 mm 0.00 in0.0 mm
11:23 PM 72.2°F22.3°C 66.1°F18.9°C 81% 1.7 mph E2.7 kmh E 4.0 mph6.4 kmh 30.22 in1023.4 mb 0.00 in0.0 mm 0.00 in0.0 mm 0.00 in0.0 mm
11:28 PM 72.2°F22.3°C 66.1°F18.9°C 81% 1.7 mph E2.7 kmh E 4.0 mph6.4 kmh 30.22 in1023.4 mb 0.00 in0.0 mm 0.00 in0.0 mm 0.00 in0.0 mm
11:33 PM 72.1°F22.3°C 66.0°F18.9°C 81% 2.0 mph E3.2 kmh E 4.0 mph6.4 kmh 30.22 in1023.4 mb 0.00 in0.0 mm 0.00 in0.0 mm 0.00 in0.0 mm
11:38 PM 72.0°F22.2°C 65.9°F18.8°C 81% 1.7 mph E2.7 kmh E 3.0 mph4.8 kmh 30.22 in1023.4 mb 0.00 in0.0 mm 0.00 in0.0 mm 0.00 in0.0 mm
11:43 PM 71.9°F22.2°C 65.8°F18.8°C 81% 1.7 mph E2.7 kmh E 3.0 mph4.8 kmh 30.22 in1023.4 mb 0.00 in0.0 mm 0.00 in0.0 mm 0.00 in0.0 mm
11:48 PM 71.8°F22.1°C 66.1°F18.9°C 82% 1.5 mph E2.4 kmh E 4.0 mph6.4 kmh 30.22 in1023.4 mb 0.00 in0.0 mm 0.00 in0.0 mm 0.00 in0.0 mm
11:53 PM 71.6°F22.0°C 65.9°F18.8°C 82% 1.5 mph E2.4 kmh E 4.0 mph6.4 kmh 30.22 in1023.4 mb 0.00 in0.0 mm 0.00 in0.0 mm 0.00 in0.0 mm
11:58 PM 71.5°F21.9°C 65.8°F18.8°C 82% 1.1 mph ENE1.8 kmh ENE 4.0 mph6.4 kmh 30.22 in1023.4 mb 0.00 in0.0 mm 0.00 in0.0 mm 0.00 in0.0 mm